Airfield :
LOGIN :

Register | Disclaimer

   EN    FR    IT 

 










Legend :    VFR   Marginal VFR   IFR   Intensive IFR   Very Intensive IFR
Visi :
Ceiling :
>= 8 km
>= 3000ft
5 to 8 km
1000 to 3000 ft
1500m to 5 km
500 to 1000 ft
800 to 1500m
200 to 500 ft
< 800m
< 200 ft
Symbols :   Thunderstorms  Fog  Heavy snow  Heavy precipitations  Wind > 20 kt
SIGMETs :     Misc.  Thunderstorms  Icing  Turbulence  Mountain Waves  Volcanic Ashes






- Airport Elevation : 856 ft
- IATA code : VGO


LEVX - Vigo Peinador

CURRENT METAR :
  • 141130Z 28007KT 230V340 9999 FEW016 BKN027 17/13 Q1018 NOSIG

EXPIRED METARs :
  • 141100Z 27008KT 220V330 9999 FEW009 BKN020 17/13 Q1018 NOSIG
  • 141030Z 27006KT 220V330 9999 FEW007 BKN013 16/13 Q1018 BECMG 2000
  • 141000Z 28008KT 240V340 9999 FEW006 BKN010 16/13 Q1018 NOSIG
  • 140930Z 27006KT 220V310 8000 SCT004 BKN006 BKN009 15/13 Q1017 NOSIG
  • 140921Z 27005KT 230V330 7000 SCT004 BKN006 BKN009 15/13 Q1017 NOSIG
  • 140900Z 26008KT 230V300 4000 BR FEW002 SCT003 BKN006 14/14 Q1017 NOSIG
  • 140830Z 26006KT 210V310 4000 BR SCT002 BKN004 BKN007 15/14 Q1017 NOSIG
  • 140800Z 29011KT 260V320 4500 BR FEW003 SCT005 BKN006 14/13 Q1017 NOSIG
  • 140747Z 29009KT 240V320 3500 -RA BR SCT002 BKN003 BKN006 15/14 Q1017 NOSIG
  • 140730Z 24007KT 200V270 1300 R19/1600D R01/1600D -RA BR SCT002 OVC003 16/15 Q1017 NOSIG
  • 140721Z 23006KT 200V280 2000 -RA BR SCT003 OVC004 16/15 Q1017 NOSIG
  • 140700Z 21007KT 170V250 1200 R19/1500N R01/1400U RA BCFG SCT002 OVC003 16/15 Q1016 NOSIG

TAF TAF LEVX
Valid from the 14 at 12:00 until the 15 at 12:00 UTC


141100Z 1412/1512 28009KT 9999 SCT015 BKN025 TX18/1414Z TN11/1506Z
PROB40
TEMPO 1423/1508 3000 BR BKN010
PROB30
TEMPO 1500/1508 0350 FG BKN001



MET'MAP, your aeronautical weather chart ! - Copyright ORBIFLY December 2007 - Disclaimer

ORBIFLY MET'MAP TEAM :

Programming & Development : Alexandra Zaïnal
Original concept : Baudouin d'Aumeries
Technical & hardware support : Manuel Goepfert
Assistance : Marc-Olivier Méhu




SOURCES & CREDITS :

   NOAA